Time;durP1;ratioP1;P1;durP2;ratioP2;P2;SDS_P1;SDS_P2;PMS_P1;PMS_P2;Temp;Humidity;BMP_temperature;BMP_pressure;BME280_temperature;BME280_humidity;BME280_pressure;Samples;Min_cycle;Max_cycle;Signal;HPM_P1;HPM_P2
2022/03/10 00:01:59;;;;;;;58.72;20.40;;;;;;;-148.23;100.00;61223.13;4960846;28;20442;-68
2022/03/10 00:04:25;;;;;;;54.53;20.35;;;;;;;-148.23;100.00;61223.13;4963567;28;20030;-68
2022/03/10 00:06:50;;;;;;;55.13;20.05;;;;;;;-148.23;100.00;61223.13;4959747;28;20073;-69
2022/03/10 00:09:16;;;;;;;58.92;20.10;;;;;;;-148.23;100.00;61223.13;4962706;28;20033;-68
2022/03/10 00:11:41;;;;;;;52.67;20.45;;;;;;;-148.23;100.00;61223.13;4960956;28;20076;-68
2022/03/10 00:14:07;;;;;;;54.03;19.73;;;;;;;-148.23;100.00;61223.13;4960991;28;20161;-68
2022/03/10 00:16:32;;;;;;;58.05;20.85;;;;;;;-148.23;100.00;61223.13;4974491;28;20023;-68
2022/03/10 00:18:58;;;;;;;54.20;20.65;;;;;;;-148.23;100.00;61223.13;4959865;28;20029;-66
2022/03/10 00:21:23;;;;;;;52.58;19.95;;;;;;;-148.23;100.00;61223.13;4960236;28;20145;-68
2022/03/10 00:23:48;;;;;;;55.42;21.42;;;;;;;-148.23;100.00;61223.13;4962568;28;20025;-68
2022/03/10 00:26:13;;;;;;;54.97;20.77;;;;;;;-148.23;100.00;61223.13;4963222;28;20034;-68
2022/03/10 00:28:39;;;;;;;59.00;21.30;;;;;;;-148.23;100.00;61223.13;4961835;28;20037;-68
2022/03/10 00:31:04;;;;;;;62.97;20.95;;;;;;;-148.23;100.00;61223.13;4960246;28;20037;-68
2022/03/10 00:33:29;;;;;;;57.60;21.25;;;;;;;-148.23;100.00;61223.13;4961126;28;20034;-68
2022/03/10 00:35:55;;;;;;;51.00;20.60;;;;;;;-148.23;100.00;61223.13;4961075;28;20463;-68
2022/03/10 00:38:20;;;;;;;55.67;19.92;;;;;;;-148.23;100.00;61223.13;4959703;28;20504;-68
2022/03/10 00:40:46;;;;;;;55.80;21.45;;;;;;;-148.23;100.00;61223.13;4957860;28;20547;-68
2022/03/10 00:43:12;;;;;;;64.55;22.58;;;;;;;-148.23;100.00;61223.13;4960670;28;20489;-68
2022/03/10 00:45:38;;;;;;;58.50;22.13;;;;;;;-148.23;100.00;61223.13;4963776;28;20557;-68
2022/03/10 00:48:03;;;;;;;65.45;22.85;;;;;;;-148.23;100.00;61223.13;4961258;28;20048;-68
2022/03/10 00:50:29;;;;;;;55.17;21.40;;;;;;;-148.23;100.00;61223.13;4959652;28;20053;-69
2022/03/10 00:52:55;;;;;;;55.45;20.70;;;;;;;-148.23;100.00;61223.13;4961634;28;20093;-68
2022/03/10 00:55:20;;;;;;;57.83;20.20;;;;;;;-148.23;100.00;61223.13;4962203;28;20396;-68
2022/03/10 00:57:46;;;;;;;57.58;21.55;;;;;;;-148.23;100.00;61223.13;4959243;28;20035;-68
2022/03/10 01:00:12;;;;;;;66.60;22.27;;;;;;;-148.23;100.00;61223.13;4964990;28;20037;-68
2022/03/10 01:02:37;;;;;;;56.95;22.65;;;;;;;-148.23;100.00;61223.13;4959017;28;20030;-68
2022/03/10 01:05:03;;;;;;;61.47;22.02;;;;;;;-148.23;100.00;61223.13;4962249;28;20790;-68
2022/03/10 01:07:29;;;;;;;66.40;22.25;;;;;;;-148.23;100.00;61223.13;4961553;28;20081;-68
2022/03/10 01:09:54;;;;;;;59.28;21.98;;;;;;;-148.23;100.00;61223.13;4960981;28;20042;-68
2022/03/10 01:12:19;;;;;;;59.47;22.35;;;;;;;-148.23;100.00;61223.13;4960851;28;20121;-68
2022/03/10 01:14:45;;;;;;;54.45;21.48;;;;;;;-148.23;100.00;61223.13;4961696;28;20037;-68
2022/03/10 01:17:10;;;;;;;54.90;19.77;;;;;;;-148.23;100.00;61223.13;4961137;28;20045;-68
2022/03/10 01:19:36;;;;;;;55.60;21.70;;;;;;;-148.23;100.00;61223.13;4964003;28;20060;-68
2022/03/10 01:22:01;;;;;;;60.25;22.75;;;;;;;-148.23;100.00;61223.13;4958277;28;20062;-68
2022/03/10 01:24:26;;;;;;;57.60;21.95;;;;;;;-148.23;100.00;61223.13;4961078;28;20106;-68
2022/03/10 01:26:52;;;;;;;65.28;22.10;;;;;;;-148.23;100.00;61223.13;4959358;28;20121;-68
2022/03/10 01:29:17;;;;;;;56.95;21.27;;;;;;;-148.23;100.00;61223.13;4959799;28;20584;-68
2022/03/10 01:31:43;;;;;;;55.88;19.98;;;;;;;-148.23;100.00;61223.13;4960008;28;20054;-68
2022/03/10 01:34:08;;;;;;;49.47;19.63;;;;;;;-148.23;100.00;61223.13;4960001;28;20093;-68
2022/03/10 01:36:33;;;;;;;48.53;18.70;;;;;;;-148.23;100.00;61223.13;4968287;28;20134;-68
2022/03/10 01:39:03;;;;;;;43.40;17.50;;;;;;;-148.23;100.00;61223.13;4960667;28;20049;-68
2022/03/10 01:41:28;;;;;;;51.50;18.58;;;;;;;-148.23;100.00;61223.13;4958997;28;20033;-68
2022/03/10 01:44:00;;;;;;;52.97;18.67;;;;;;;-148.23;100.00;61223.13;4962083;28;20042;-68
2022/03/10 01:46:26;;;;;;;47.95;17.15;;;;;;;-148.23;100.00;61223.13;4960066;28;20117;-68
2022/03/10 01:48:52;;;;;;;48.33;18.85;;;;;;;-148.23;100.00;61223.13;4973595;28;20084;-68
2022/03/10 01:51:17;;;;;;;49.42;18.13;;;;;;;-148.23;100.00;61223.13;4953089;28;20065;-68
2022/03/10 01:53:43;;;;;;;57.83;20.85;;;;;;;-148.23;100.00;61223.13;4960382;28;20136;-68
2022/03/10 01:56:09;;;;;;;50.35;19.58;;;;;;;-148.23;100.00;61223.13;4956771;28;20614;-68
2022/03/10 01:58:36;;;;;;;50.08;18.00;;;;;;;-148.23;100.00;61223.13;4961143;28;20041;-68
2022/03/10 02:01:02;;;;;;;42.10;17.15;;;;;;;-148.23;100.00;61223.13;4959109;28;20027;-68
2022/03/10 02:03:27;;;;;;;49.40;18.20;;;;;;;-148.23;100.00;61223.13;4973399;28;20364;-68
2022/03/10 02:05:53;;;;;;;49.35;17.13;;;;;;;-148.23;100.00;61223.13;4959097;28;20027;-68
2022/03/10 02:11:03;;;;;;;47.90;18.15;;;;;;;-148.23;100.00;61223.13;4960039;28;20509;-68
2022/03/10 02:13:28;;;;;;;49.33;18.20;;;;;;;-148.23;100.00;61223.13;4977282;28;20531;-68
2022/03/10 02:18:51;;;;;;;51.00;17.95;;;;;;;-148.23;100.00;61223.13;4943409;28;20421;-68
2022/03/10 02:21:16;;;;;;;49.45;18.63;;;;;;;-148.23;100.00;61223.13;4975520;28;20030;-68
2022/03/10 02:23:44;;;;;;;50.75;19.92;;;;;;;-148.23;100.00;61223.13;4960061;28;20121;-68
2022/03/10 02:26:09;;;;;;;48.42;17.98;;;;;;;-148.23;100.00;61223.13;4974476;28;20105;-69
2022/03/10 02:28:35;;;;;;;56.63;19.00;;;;;;;-148.23;100.00;61223.13;4969248;28;20081;-68
2022/03/10 02:31:00;;;;;;;45.67;18.45;;;;;;;-148.23;100.00;61223.13;4957076;28;20027;-68
2022/03/10 02:33:26;;;;;;;47.88;18.67;;;;;;;-148.23;100.00;61223.13;4957552;28;20070;-68
2022/03/10 02:35:51;;;;;;;44.40;17.40;;;;;;;-148.23;100.00;61223.13;4959969;28;20041;-68
2022/03/10 02:38:18;;;;;;;44.45;17.45;;;;;;;-148.23;100.00;61223.13;4959074;28;20030;-68
2022/03/10 02:40:44;;;;;;;43.05;17.40;;;;;;;-148.23;100.00;61223.13;4962354;28;22599;-68
2022/03/10 02:43:09;;;;;;;42.53;16.48;;;;;;;-148.23;100.00;61223.13;4959311;28;20118;-68
2022/03/10 02:45:35;;;;;;;45.90;17.17;;;;;;;-148.23;100.00;61223.13;4958719;28;20031;-68
2022/03/10 02:48:00;;;;;;;46.50;17.70;;;;;;;-148.23;100.00;61223.13;4962419;28;20133;-68
2022/03/10 02:50:25;;;;;;;41.13;17.45;;;;;;;-148.23;100.00;61223.13;4967357;28;20036;-68
2022/03/10 02:52:51;;;;;;;50.28;18.10;;;;;;;-148.23;100.00;61223.13;4964506;28;20034;-68
2022/03/10 02:55:16;;;;;;;44.15;17.85;;;;;;;-148.23;100.00;61223.13;4964417;28;21068;-68
2022/03/10 02:57:41;;;;;;;53.30;16.83;;;;;;;-148.23;100.00;61223.13;4965157;28;20050;-68
2022/03/10 03:00:08;;;;;;;48.72;17.50;;;;;;;-148.23;100.00;61223.13;4959401;28;20067;-68
2022/03/10 03:02:34;;;;;;;40.55;15.45;;;;;;;-148.23;100.00;61223.13;4962465;28;20045;-68
2022/03/10 03:04:59;;;;;;;40.88;16.90;;;;;;;-148.23;100.00;61223.13;4963078;28;20026;-68
2022/03/10 03:07:24;;;;;;;49.38;17.80;;;;;;;-148.23;100.00;61223.13;4962643;28;20035;-68
2022/03/10 03:09:50;;;;;;;44.38;15.90;;;;;;;-148.23;100.00;61223.13;4961026;28;20038;-68
2022/03/10 03:12:16;;;;;;;45.00;16.80;;;;;;;-148.23;100.00;61223.13;4960949;28;20063;-68
2022/03/10 03:14:41;;;;;;;45.45;17.30;;;;;;;-148.23;100.00;61223.13;4966174;28;20078;-68
2022/03/10 03:17:07;;;;;;;40.47;15.75;;;;;;;-148.23;100.00;61223.13;4963830;28;20471;-68
2022/03/10 03:19:32;;;;;;;42.28;16.45;;;;;;;-148.23;100.00;61223.13;4960549;28;20085;-68
2022/03/10 03:21:57;;;;;;;41.65;16.70;;;;;;;-148.23;100.00;61223.13;4960980;28;20145;-68
2022/03/10 03:24:23;;;;;;;47.90;18.35;;;;;;;-148.23;100.00;61223.13;4963132;28;20078;-68
2022/03/10 03:26:48;;;;;;;45.28;18.17;;;;;;;-148.23;100.00;61223.13;4961359;28;20143;-68
2022/03/10 03:29:14;;;;;;;51.13;19.13;;;;;;;-148.23;100.00;61223.13;4963040;28;20438;-68
2022/03/10 03:31:39;;;;;;;40.30;16.13;;;;;;;-148.23;100.00;61223.13;4976284;28;20142;-68
2022/03/10 03:34:10;;;;;;;40.90;17.02;;;;;;;-148.23;100.00;61223.13;4962012;28;20069;-68
2022/03/10 03:36:36;;;;;;;41.63;17.60;;;;;;;-148.23;100.00;61223.13;4957748;28;20193;-68
2022/03/10 03:39:02;;;;;;;45.08;16.90;;;;;;;-148.23;100.00;61223.13;4962718;28;20069;-68
2022/03/10 03:41:27;;;;;;;42.03;16.65;;;;;;;-148.23;100.00;61223.13;4961486;28;20026;-68
2022/03/10 03:43:52;;;;;;;47.60;18.02;;;;;;;-148.23;100.00;61223.13;4960407;28;20073;-68
2022/03/10 03:46:18;;;;;;;51.42;18.00;;;;;;;-148.23;100.00;61223.13;4964764;28;20065;-68
2022/03/10 03:48:43;;;;;;;42.80;17.23;;;;;;;-148.23;100.00;61223.13;4963309;28;20344;-68
2022/03/10 03:51:08;;;;;;;48.75;16.60;;;;;;;-148.23;100.00;61223.13;4954878;28;20037;-68
2022/03/10 03:53:34;;;;;;;51.90;18.33;;;;;;;-148.23;100.00;61223.13;4960570;28;20125;-68
2022/03/10 03:55:59;;;;;;;49.92;17.80;;;;;;;-148.23;100.00;61223.13;4961060;28;20378;-68
2022/03/10 03:58:25;;;;;;;47.75;18.25;;;;;;;-148.23;100.00;61223.13;4960895;28;20026;-68
2022/03/10 04:00:51;;;;;;;44.42;17.77;;;;;;;-148.23;100.00;61223.13;4960752;28;20109;-68
2022/03/10 04:03:16;;;;;;;52.88;19.35;;;;;;;-148.23;100.00;61223.13;4958304;28;20476;-68
2022/03/10 04:05:42;;;;;;;44.60;17.98;;;;;;;-148.23;100.00;61223.13;4960689;28;20027;-68
2022/03/10 04:08:07;;;;;;;45.05;16.15;;;;;;;-148.23;100.00;61223.13;4965020;28;20469;-68
2022/03/10 04:10:33;;;;;;;49.15;18.38;;;;;;;-148.23;100.00;61223.13;4957990;28;20054;-68
2022/03/10 04:12:59;;;;;;;42.78;17.65;;;;;;;-148.23;100.00;61223.13;4961742;28;20105;-68
2022/03/10 04:15:24;;;;;;;42.70;16.60;;;;;;;-148.23;100.00;61223.13;4962544;28;20074;-68
2022/03/10 04:17:49;;;;;;;54.58;18.27;;;;;;;-148.23;100.00;61223.13;4960927;28;20177;-68
2022/03/10 04:20:15;;;;;;;46.08;17.65;;;;;;;-148.23;100.00;61223.13;4961989;28;20145;-68
2022/03/10 04:22:40;;;;;;;51.65;19.10;;;;;;;-148.23;100.00;61223.13;4974221;28;20066;-68
2022/03/10 04:25:06;;;;;;;50.60;17.95;;;;;;;-148.23;100.00;61223.13;4965342;28;20034;-68
2022/03/10 04:27:32;;;;;;;45.05;17.85;;;;;;;-148.23;100.00;61223.13;4964455;28;20049;-68
2022/03/10 04:29:57;;;;;;;43.72;17.90;;;;;;;-148.23;100.00;61223.13;4966001;28;20038;-68
2022/03/10 04:32:22;;;;;;;46.78;18.77;;;;;;;-148.23;100.00;61223.13;4962429;28;20747;-68
2022/03/10 04:34:48;;;;;;;48.15;18.52;;;;;;;-148.23;100.00;61223.13;4964556;28;20027;-68
2022/03/10 04:37:13;;;;;;;44.78;15.57;;;;;;;-148.23;100.00;61223.13;4963110;28;20027;-68
2022/03/10 04:39:38;;;;;;;44.40;17.67;;;;;;;-148.23;100.00;61223.13;4961785;28;20121;-68
2022/03/10 04:42:04;;;;;;;43.13;16.92;;;;;;;-148.23;100.00;61223.13;4959525;28;20734;-68
2022/03/10 04:44:29;;;;;;;48.20;17.92;;;;;;;-148.23;100.00;61223.13;4955657;28;20065;-68
2022/03/10 04:46:55;;;;;;;49.67;18.42;;;;;;;-148.23;100.00;61223.13;4966967;28;20038;-68
2022/03/10 04:49:20;;;;;;;47.03;16.90;;;;;;;-148.23;100.00;61223.13;4963286;28;20035;-68
2022/03/10 04:51:45;;;;;;;37.03;16.65;;;;;;;-148.23;100.00;61223.13;4959986;28;20035;-68
2022/03/10 04:54:11;;;;;;;49.28;17.60;;;;;;;-148.23;100.00;61223.13;4961479;28;20533;-68
2022/03/10 04:56:36;;;;;;;47.92;18.40;;;;;;;-148.23;100.00;61223.13;4962512;28;20064;-69
2022/03/10 04:59:01;;;;;;;40.38;17.05;;;;;;;-148.23;100.00;61223.13;4960053;28;20030;-68
2022/03/10 05:01:27;;;;;;;45.10;16.38;;;;;;;-148.23;100.00;61223.13;4962368;28;20042;-68
2022/03/10 05:03:53;;;;;;;48.50;17.50;;;;;;;-148.23;100.00;61223.13;4956318;28;20394;-69
2022/03/10 05:06:20;;;;;;;49.95;18.50;;;;;;;-148.23;100.00;61223.13;4958250;28;20034;-68
2022/03/10 05:08:46;;;;;;;48.70;17.58;;;;;;;-148.23;100.00;61223.13;4959602;28;20031;-68
2022/03/10 05:11:11;;;;;;;49.22;18.58;;;;;;;-148.23;100.00;61223.13;4960187;28;20464;-69
2022/03/10 05:13:36;;;;;;;46.58;17.73;;;;;;;-148.23;100.00;61223.13;4959674;28;20133;-68
2022/03/10 05:16:01;;;;;;;47.30;18.30;;;;;;;-148.23;100.00;61223.13;4957981;28;20324;-68
2022/03/10 05:18:27;;;;;;;45.75;16.42;;;;;;;-148.23;100.00;61223.13;4960994;28;20039;-68
2022/03/10 05:20:52;;;;;;;43.22;18.13;;;;;;;-148.23;100.00;61223.13;4962384;28;20031;-68
2022/03/10 05:23:17;;;;;;;41.97;15.13;;;;;;;-148.23;100.00;61223.13;4976927;28;20058;-68
2022/03/10 05:25:43;;;;;;;46.30;15.77;;;;;;;-148.23;100.00;61223.13;4964026;28;20066;-68
2022/03/10 05:28:14;;;;;;;46.28;17.05;;;;;;;-148.23;100.00;61223.13;4965243;28;20121;-68
2022/03/10 05:30:40;;;;;;;45.05;16.42;;;;;;;-148.23;100.00;61223.13;4955900;28;20034;-68
2022/03/10 05:33:06;;;;;;;49.65;17.92;;;;;;;-148.23;100.00;61223.13;4961436;28;20418;-68
2022/03/10 05:35:31;;;;;;;43.30;17.15;;;;;;;-148.23;100.00;61223.13;4963191;28;20054;-68
2022/03/10 05:37:57;;;;;;;42.28;16.73;;;;;;;-148.23;100.00;61223.13;4963634;28;20153;-68
2022/03/10 05:40:23;;;;;;;46.03;16.88;;;;;;;-148.23;100.00;61223.13;4957770;28;20413;-68
2022/03/10 05:42:51;;;;;;;44.35;17.08;;;;;;;-148.23;100.00;61223.13;4963707;28;20034;-68
2022/03/10 05:45:20;;;;;;;41.85;17.73;;;;;;;-148.23;100.00;61223.13;4962968;28;20142;-68
2022/03/10 05:47:46;;;;;;;48.92;19.10;;;;;;;-148.23;100.00;61223.13;4961500;28;20034;-68
2022/03/10 05:50:11;;;;;;;56.97;19.20;;;;;;;-148.23;100.00;61223.13;4959968;28;20035;-69
2022/03/10 05:52:37;;;;;;;41.92;17.77;;;;;;;-148.23;100.00;61223.13;4961634;28;20426;-69
2022/03/10 05:55:03;;;;;;;41.50;18.00;;;;;;;-148.23;100.00;61223.13;4962327;28;20038;-70
2022/03/10 05:57:29;;;;;;;40.75;17.35;;;;;;;-148.23;100.00;61223.13;4977967;28;20449;-68
2022/03/10 05:59:54;;;;;;;41.97;16.95;;;;;;;-148.23;100.00;61223.13;4962829;28;20073;-68
2022/03/10 06:02:19;;;;;;;40.72;15.70;;;;;;;-148.23;100.00;61223.13;4962189;28;20035;-68
2022/03/10 06:04:45;;;;;;;42.38;16.70;;;;;;;-148.23;100.00;61223.13;4964723;28;20034;-69
2022/03/10 06:07:11;;;;;;;44.55;16.45;;;;;;;-148.23;100.00;61223.13;4939101;28;20035;-68
2022/03/10 06:09:36;;;;;;;52.08;18.90;;;;;;;-148.23;100.00;61223.13;4952551;28;20058;-69
2022/03/10 06:12:02;;;;;;;50.33;18.77;;;;;;;-148.23;100.00;61223.13;4957416;28;20561;-68
2022/03/10 06:14:27;;;;;;;42.17;17.42;;;;;;;-148.23;100.00;61223.13;4957221;28;20042;-68
2022/03/10 06:16:53;;;;;;;46.90;17.05;;;;;;;-148.23;100.00;61223.13;4960546;28;20089;-68
2022/03/10 06:19:18;;;;;;;42.83;18.02;;;;;;;-148.23;100.00;61223.13;4960938;28;20540;-68
2022/03/10 06:21:43;;;;;;;42.10;16.67;;;;;;;-148.23;100.00;61223.13;4960994;28;20034;-68
2022/03/10 06:24:09;;;;;;;46.78;17.20;;;;;;;-148.23;100.00;61223.13;4957090;28;20457;-68
2022/03/10 06:26:36;;;;;;;41.25;16.88;;;;;;;-148.23;100.00;61223.13;4965022;28;20045;-68
2022/03/10 06:29:03;;;;;;;41.53;16.33;;;;;;;-148.23;100.00;61223.13;4966553;28;20393;-68
2022/03/10 06:31:28;;;;;;;42.63;17.60;;;;;;;-148.23;100.00;61223.13;4964046;28;20030;-68
2022/03/10 06:33:54;;;;;;;52.22;17.42;;;;;;;-148.23;100.00;61223.13;4962944;28;20839;-68
2022/03/10 06:36:19;;;;;;;45.85;18.38;;;;;;;-148.23;100.00;61223.13;4968193;28;20042;-68
2022/03/10 06:38:44;;;;;;;51.20;18.65;;;;;;;-148.23;100.00;61223.13;4969078;28;20031;-68
2022/03/10 06:41:10;;;;;;;53.08;18.48;;;;;;;-148.23;100.00;61223.13;4964025;28;20038;-68
2022/03/10 06:43:35;;;;;;;48.13;17.80;;;;;;;-148.23;100.00;61223.13;4961953;28;20034;-68
2022/03/10 06:46:00;;;;;;;48.88;17.83;;;;;;;-148.23;100.00;61223.13;4963661;28;20284;-68
2022/03/10 06:48:26;;;;;;;48.22;17.70;;;;;;;-148.23;100.00;61223.13;4967153;28;20034;-68
2022/03/10 06:50:51;;;;;;;44.70;18.10;;;;;;;-148.23;100.00;61223.13;4961532;28;20485;-68
2022/03/10 06:53:17;;;;;;;46.22;16.65;;;;;;;-148.23;100.00;61223.13;4958774;28;20121;-68
2022/03/10 06:55:42;;;;;;;38.55;15.48;;;;;;;-148.23;100.00;61223.13;4968450;28;20032;-68
2022/03/10 06:58:08;;;;;;;42.13;17.00;;;;;;;-148.23;100.00;61223.13;4962529;28;20068;-68
2022/03/10 07:00:34;;;;;;;37.55;15.68;;;;;;;-148.23;100.00;61223.13;4965328;28;20036;-68
2022/03/10 07:02:59;;;;;;;46.22;17.05;;;;;;;-148.23;100.00;61223.13;4962051;28;20154;-68
2022/03/10 07:05:24;;;;;;;43.25;16.85;;;;;;;-148.23;100.00;61223.13;4958308;28;20045;-68
2022/03/10 07:07:50;;;;;;;45.50;18.33;;;;;;;-148.23;100.00;61223.13;4966192;28;20039;-68
2022/03/10 07:10:15;;;;;;;47.08;17.98;;;;;;;-148.23;100.00;61223.13;4962549;28;20050;-68
2022/03/10 07:12:41;;;;;;;42.05;18.90;;;;;;;-148.23;100.00;61223.13;4960760;28;20118;-68
2022/03/10 07:15:08;;;;;;;49.45;17.92;;;;;;;-148.23;100.00;61223.13;4975577;28;20129;-68
2022/03/10 07:17:33;;;;;;;50.92;17.80;;;;;;;-148.23;100.00;61223.13;4959951;28;20031;-68
2022/03/10 07:19:59;;;;;;;47.67;17.95;;;;;;;-148.23;100.00;61223.13;4957809;28;20035;-69
2022/03/10 07:22:25;;;;;;;42.83;16.23;;;;;;;-148.23;100.00;61223.13;4960800;28;20131;-68
2022/03/10 07:24:50;;;;;;;46.28;17.20;;;;;;;-148.23;100.00;61223.13;4958337;28;20054;-68
2022/03/10 07:27:16;;;;;;;43.45;17.73;;;;;;;-148.23;100.00;61223.13;4963440;28;20038;-68
2022/03/10 07:29:41;;;;;;;43.20;15.88;;;;;;;-148.23;100.00;61223.13;4942077;28;20035;-69
2022/03/10 07:32:07;;;;;;;42.72;18.77;;;;;;;-148.23;100.00;61223.13;4958915;28;20504;-68
2022/03/10 07:34:32;;;;;;;45.55;18.10;;;;;;;-148.23;100.00;61223.13;4955332;28;20042;-69
2022/03/10 07:36:57;;;;;;;46.58;21.60;;;;;;;-148.23;100.00;61223.13;4961468;28;20022;-68
2022/03/10 07:39:23;;;;;;;45.35;18.90;;;;;;;-148.23;100.00;61223.13;4975902;28;20046;-68
2022/03/10 07:41:48;;;;;;;40.75;19.90;;;;;;;-148.23;100.00;61223.13;4962233;28;20027;-68
2022/03/10 07:44:14;;;;;;;43.50;18.33;;;;;;;-148.23;100.00;61223.13;4961677;28;20027;-68
2022/03/10 07:46:39;;;;;;;42.65;18.02;;;;;;;-148.23;100.00;61223.13;4960652;28;20366;-66
2022/03/10 07:49:05;;;;;;;47.00;20.35;;;;;;;-148.23;100.00;61223.13;4958180;28;20045;-66
2022/03/10 07:51:30;;;;;;;49.65;19.00;;;;;;;-148.23;100.00;61223.13;4956886;28;20031;-66
2022/03/10 07:53:56;;;;;;;49.13;23.73;;;;;;;-148.23;100.00;61223.13;4962933;28;20677;-66
2022/03/10 07:56:21;;;;;;;48.70;20.02;;;;;;;-148.23;100.00;61223.13;4946176;28;20030;-66
2022/03/10 07:58:46;;;;;;;41.10;18.42;;;;;;;-148.23;100.00;61223.13;4954958;28;20038;-66
2022/03/10 08:01:12;;;;;;;42.35;20.58;;;;;;;-148.23;100.00;61223.13;4957641;28;20035;-67
2022/03/10 08:03:38;;;;;;;49.90;20.42;;;;;;;-148.23;100.00;61223.13;4958278;28;20066;-68
2022/03/10 08:06:04;;;;;;;44.03;18.65;;;;;;;-148.23;100.00;61223.13;4958282;28;20078;-69
2022/03/10 08:08:29;;;;;;;43.50;22.52;;;;;;;-148.23;100.00;61223.13;4959586;28;20359;-68
2022/03/10 08:10:54;;;;;;;50.42;22.90;;;;;;;-148.23;100.00;61223.13;4957835;28;20389;-69
2022/03/10 08:13:24;;;;;;;49.08;21.00;;;;;;;-148.23;100.00;61223.13;4960454;28;20049;-68
2022/03/10 08:15:50;;;;;;;40.17;19.17;;;;;;;-148.23;100.00;61223.13;4962367;28;20026;-66
2022/03/10 08:18:16;;;;;;;38.33;16.45;;;;;;;-148.23;100.00;61223.13;4964126;28;20035;-66
2022/03/10 08:20:41;;;;;;;43.53;19.88;;;;;;;-148.23;100.00;61223.13;4960186;28;20018;-66
2022/03/10 08:23:07;;;;;;;49.17;20.63;;;;;;;-148.23;100.00;61223.13;4960370;28;20019;-66
2022/03/10 08:25:33;;;;;;;46.20;19.20;;;;;;;-148.23;100.00;61223.13;4962934;28;20568;-66
2022/03/10 08:27:59;;;;;;;43.13;19.45;;;;;;;-148.23;100.00;61223.13;4961499;28;20035;-66
2022/03/10 08:30:24;;;;;;;50.67;17.67;;;;;;;-148.23;100.00;61223.13;4957385;28;20709;-66
2022/03/10 08:32:49;;;;;;;46.33;20.23;;;;;;;-148.23;100.00;61223.13;4959754;28;20114;-67
2022/03/10 08:35:17;;;;;;;47.08;23.20;;;;;;;-148.23;100.00;61223.13;4961836;28;20038;-66
2022/03/10 08:37:43;;;;;;;41.60;17.42;;;;;;;-148.23;100.00;61223.13;4965412;28;20034;-66
2022/03/10 08:40:10;;;;;;;45.33;19.52;;;;;;;-148.23;100.00;61223.13;4964103;28;20077;-67
2022/03/10 08:42:35;;;;;;;49.03;19.80;;;;;;;-148.23;100.00;61223.13;4958081;28;20030;-66
2022/03/10 08:45:01;;;;;;;49.63;19.73;;;;;;;-148.23;100.00;61223.13;4965621;28;20062;-66
2022/03/10 08:47:26;;;;;;;48.75;19.45;;;;;;;-148.23;100.00;61223.13;4962059;28;20056;-66
2022/03/10 08:49:51;;;;;;;58.97;25.77;;;;;;;-148.23;100.00;61223.13;4960839;28;20031;-68
2022/03/10 08:52:17;;;;;;;54.30;24.20;;;;;;;-148.23;100.00;61223.13;4956882;28;20034;-66
2022/03/10 08:54:42;;;;;;;50.88;21.48;;;;;;;-148.23;100.00;61223.13;4959266;28;20480;-66
2022/03/10 08:57:07;;;;;;;56.22;22.98;;;;;;;-148.23;100.00;61223.13;4961460;28;20039;-66
2022/03/10 08:59:32;;;;;;;51.15;24.00;;;;;;;-148.23;100.00;61223.13;4958716;28;20575;-67
2022/03/10 09:01:58;;;;;;;48.13;22.33;;;;;;;-148.23;100.00;61223.13;4957737;28;20031;-66
2022/03/10 09:04:23;;;;;;;46.53;19.23;;;;;;;-148.23;100.00;61223.13;4968344;28;20023;-66
2022/03/10 09:06:48;;;;;;;55.38;21.00;;;;;;;-148.23;100.00;61223.13;4963035;28;20037;-66
2022/03/10 09:09:14;;;;;;;61.15;24.67;;;;;;;-148.23;100.00;61223.13;4965185;28;20434;-66
2022/03/10 09:11:39;;;;;;;50.20;21.40;;;;;;;-148.23;100.00;61223.13;4973280;28;20455;-66
2022/03/10 09:14:04;;;;;;;47.13;20.95;;;;;;;-148.23;100.00;61223.13;4956843;28;20205;-66
2022/03/10 09:16:30;;;;;;;55.42;27.23;;;;;;;-148.23;100.00;61223.13;4958453;28;20039;-67
2022/03/10 09:18:55;;;;;;;54.15;22.58;;;;;;;-148.23;100.00;61223.13;4959753;28;20078;-66
2022/03/10 09:21:21;;;;;;;52.75;21.90;;;;;;;-148.23;100.00;61223.13;4955977;28;20428;-66
2022/03/10 09:23:46;;;;;;;59.78;24.23;;;;;;;-148.23;100.00;61223.13;4962926;28;20130;-67
2022/03/10 09:26:12;;;;;;;52.55;23.70;;;;;;;-148.23;100.00;61223.13;4958411;28;20062;-66
2022/03/10 09:28:37;;;;;;;60.70;25.13;;;;;;;-148.23;100.00;61223.13;4961011;28;20496;-66
2022/03/10 09:31:03;;;;;;;50.97;22.33;;;;;;;-148.23;100.00;61223.13;4959041;28;20094;-66
2022/03/10 09:33:28;;;;;;;51.67;22.63;;;;;;;-148.23;100.00;61223.13;4963479;28;20046;-66
2022/03/10 09:35:53;;;;;;;58.40;21.42;;;;;;;-148.23;100.00;61223.13;4965027;28;20042;-66
2022/03/10 09:38:19;;;;;;;56.70;22.58;;;;;;;-148.23;100.00;61223.13;4962428;28;20054;-66
2022/03/10 09:40:52;;;;;;;59.17;25.45;;;;;;;-148.23;100.00;61223.13;4961931;28;20039;-66
2022/03/10 09:43:20;;;;;;;52.92;23.70;;;;;;;-148.23;100.00;61223.13;4956064;28;20082;-66
2022/03/10 09:45:46;;;;;;;62.35;26.13;;;;;;;-148.23;100.00;61223.13;4955208;28;20046;-66
2022/03/10 09:48:12;;;;;;;50.75;21.08;;;;;;;-148.23;100.00;61223.13;4965824;28;20039;-66
2022/03/10 09:50:37;;;;;;;68.00;25.75;;;;;;;-148.23;100.00;61223.13;4972842;28;20443;-66
2022/03/10 09:53:03;;;;;;;54.90;21.48;;;;;;;-148.23;100.00;61223.13;4960069;28;20084;-66
2022/03/10 09:55:28;;;;;;;61.17;24.73;;;;;;;-148.23;100.00;61223.13;4956021;28;20169;-66
2022/03/10 09:57:54;;;;;;;63.10;25.00;;;;;;;-148.23;100.00;61223.13;4960230;28;20109;-66
2022/03/10 10:00:19;;;;;;;61.25;25.05;;;;;;;-148.23;100.00;61223.13;4957028;28;20066;-67
2022/03/10 10:02:46;;;;;;;60.50;26.65;;;;;;;-148.23;100.00;61223.13;4970753;28;20464;-66
2022/03/10 10:05:22;;;;;;;59.55;24.20;;;;;;;-148.23;100.00;61223.13;4958695;28;20118;-67
2022/03/10 10:08:11;;;;;;;64.82;24.52;;;;;;;-148.23;100.00;61223.13;4959790;28;20041;-66
2022/03/10 10:10:59;;;;;;;64.82;26.67;;;;;;;-148.23;100.00;61223.13;4951801;28;20053;-66
2022/03/10 10:13:43;;;;;;;56.10;22.95;;;;;;;-148.23;100.00;61223.13;4954976;28;20408;-66
2022/03/10 10:16:11;;;;;;;62.63;24.02;;;;;;;-148.23;100.00;61223.13;4956097;28;20609;-67
2022/03/10 10:18:38;;;;;;;68.35;26.45;;;;;;;-148.23;100.00;61223.13;4960411;28;20042;-66
2022/03/10 10:21:05;;;;;;;65.88;25.75;;;;;;;-148.23;100.00;61223.13;4958584;28;20037;-66
2022/03/10 10:23:35;;;;;;;70.05;26.58;;;;;;;-148.23;100.00;61223.13;4973985;28;20027;-67
2022/03/10 10:26:06;;;;;;;68.38;30.35;;;;;;;-148.23;100.00;61223.13;4957864;28;20019;-66
2022/03/10 10:28:37;;;;;;;74.10;31.25;;;;;;;-148.23;100.00;61223.13;4962049;28;20099;-67
2022/03/10 10:31:13;;;;;;;66.22;24.65;;;;;;;-148.23;100.00;61223.13;4956800;28;20074;-67
2022/03/10 10:33:41;;;;;;;68.25;26.58;;;;;;;-148.23;100.00;61223.13;4955058;28;20057;-67
2022/03/10 10:36:25;;;;;;;71.97;29.00;;;;;;;-148.23;100.00;61223.13;4965286;28;20048;-66
2022/03/10 10:38:55;;;;;;;72.05;30.30;;;;;;;-148.23;100.00;61223.13;4959519;28;20433;-66
2022/03/10 10:41:31;;;;;;;70.63;30.02;;;;;;;-148.23;100.00;61223.13;4958715;28;20023;-67
2022/03/10 10:44:04;;;;;;;70.85;28.85;;;;;;;-148.23;100.00;61223.13;4973962;28;20030;-66
2022/03/10 10:46:41;;;;;;;77.10;31.67;;;;;;;-148.23;100.00;61223.13;4962146;28;20447;-67
2022/03/10 10:49:17;;;;;;;66.85;27.63;;;;;;;-148.23;100.00;61223.13;4957380;28;20070;-67
2022/03/10 10:51:52;;;;;;;73.45;31.45;;;;;;;-148.23;100.00;61223.13;4958573;28;20433;-66
2022/03/10 10:54:18;;;;;;;75.57;28.80;;;;;;;-148.23;100.00;61223.13;4973240;28;20034;-66
2022/03/10 10:56:47;;;;;;;72.50;27.90;;;;;;;-148.23;100.00;61223.13;4960663;28;20038;-66